KSDM/SDM METAR and TAF weather

Enter ICAO airport designator
Station Type Date Time Source
KSDM METAR 2021/10/24 21:53 UTC NOAA

KSDM 242153Z 28010KT 10SM CLR 20/13 A2990 RMK AO2 SLP123 T02000128


Station Type Date Time Source
KSDM Decoded METAR 2021/10/24 21:53 UTC NOAA

San Diego, Brown Field Municipal Airport, CA, United States (KSDM) 32-34-31N 116-59-35W 159M
Oct 24, 2021 - 05:53 PM EDT / 2021.10.24 2153 UTC
Wind: from the W (280 degrees) at 12 MPH (10 KT):0
Visibility: 10 mile(s):0
Sky conditions: clear
Temperature: 68.0 F (20.0 C)
Dew Point: 55.0 F (12.8 C)
Relative Humidity: 63%
Pressure (altimeter): 29.9 in. Hg (1012 hPa)
ob: KSDM 242153Z 28010KT 10SM CLR 20/13 A2990 RMK AO2 SLP123 T02000128
cycle: 22

Station Type Date Time Source
KSDM TAF UTC NOAA

Error!

Example: see airport list